sensor_id;sensor_type;location;lat;lon;timestamp;pressure;altitude;pressure_sealevel;temperature;humidity
62055;BME280;48653;51.742;-1.256;2023-04-20T00:01:51;101835.76;;;6.67;43.39
62055;BME280;48653;51.742;-1.256;2023-04-20T00:04:16;101835.19;;;6.38;44.04
62055;BME280;48653;51.742;-1.256;2023-04-20T00:06:42;101836.76;;;6.97;43.63
62055;BME280;48653;51.742;-1.256;2023-04-20T00:09:07;101835.50;;;6.30;44.85
62055;BME280;48653;51.742;-1.256;2023-04-20T00:11:32;101833.90;;;6.32;45.03
62055;BME280;48653;51.742;-1.256;2023-04-20T00:13:57;101837.01;;;5.88;45.46
62055;BME280;48653;51.742;-1.256;2023-04-20T00:16:23;101829.70;;;6.22;44.91
62055;BME280;48653;51.742;-1.256;2023-04-20T00:18:48;101828.49;;;6.50;44.52
62055;BME280;48653;51.742;-1.256;2023-04-20T00:21:14;101822.11;;;6.52;44.33
62055;BME280;48653;51.742;-1.256;2023-04-20T00:23:40;101820.84;;;6.80;44.08
62055;BME280;48653;51.742;-1.256;2023-04-20T00:26:05;101818.85;;;6.93;43.78
62055;BME280;48653;51.742;-1.256;2023-04-20T00:28:30;101816.21;;;7.02;44.35
62055;BME280;48653;51.742;-1.256;2023-04-20T00:30:55;101815.40;;;6.70;45.03
62055;BME280;48653;51.742;-1.256;2023-04-20T00:33:20;101813.28;;;5.72;45.91
62055;BME280;48653;51.742;-1.256;2023-04-20T00:35:45;101810.22;;;6.67;44.35
62055;BME280;48653;51.742;-1.256;2023-04-20T00:38:11;101809.08;;;6.39;44.57
62055;BME280;48653;51.742;-1.256;2023-04-20T00:40:37;101811.04;;;6.48;44.88
62055;BME280;48653;51.742;-1.256;2023-04-20T00:43:09;101815.37;;;5.81;46.84
62055;BME280;48653;51.742;-1.256;2023-04-20T00:45:28;101810.77;;;6.38;45.64
62055;BME280;48653;51.742;-1.256;2023-04-20T00:47:53;101810.68;;;6.40;45.59
62055;BME280;48653;51.742;-1.256;2023-04-20T00:50:18;101812.04;;;5.77;46.70
62055;BME280;48653;51.742;-1.256;2023-04-20T00:52:44;101805.94;;;6.57;45.80
62055;BME280;48653;51.742;-1.256;2023-04-20T00:55:09;101805.11;;;6.01;45.90
62055;BME280;48653;51.742;-1.256;2023-04-20T00:57:34;101803.06;;;6.34;46.08
62055;BME280;48653;51.742;-1.256;2023-04-20T00:59:59;101797.84;;;5.82;47.21
62055;BME280;48653;51.742;-1.256;2023-04-20T01:02:25;101792.63;;;6.04;47.42
62055;BME280;48653;51.742;-1.256;2023-04-20T01:04:50;101788.18;;;6.72;46.13
62055;BME280;48653;51.742;-1.256;2023-04-20T01:07:15;101785.62;;;5.85;46.99
62055;BME280;48653;51.742;-1.256;2023-04-20T01:09:41;101784.28;;;5.93;47.06
62055;BME280;48653;51.742;-1.256;2023-04-20T01:12:08;101778.89;;;5.59;47.92
62055;BME280;48653;51.742;-1.256;2023-04-20T01:14:32;101777.07;;;6.43;46.71
62055;BME280;48653;51.742;-1.256;2023-04-20T01:16:58;101772.12;;;5.90;47.54
62055;BME280;48653;51.742;-1.256;2023-04-20T01:19:23;101775.40;;;6.00;47.00
62055;BME280;48653;51.742;-1.256;2023-04-20T01:21:49;101775.98;;;6.17;47.14
62055;BME280;48653;51.742;-1.256;2023-04-20T01:24:13;101777.54;;;5.74;47.90
62055;BME280;48653;51.742;-1.256;2023-04-20T01:26:39;101774.67;;;6.06;47.10
62055;BME280;48653;51.742;-1.256;2023-04-20T01:29:04;101776.97;;;5.40;48.50
62055;BME280;48653;51.742;-1.256;2023-04-20T01:31:30;101771.05;;;5.65;48.18
62055;BME280;48653;51.742;-1.256;2023-04-20T01:33:56;101766.53;;;5.98;47.43
62055;BME280;48653;51.742;-1.256;2023-04-20T01:36:20;101763.63;;;5.93;47.20
62055;BME280;48653;51.742;-1.256;2023-04-20T01:38:46;101760.00;;;5.41;48.93
62055;BME280;48653;51.742;-1.256;2023-04-20T01:41:11;101757.18;;;5.79;47.54
62055;BME280;48653;51.742;-1.256;2023-04-20T01:43:38;101754.55;;;5.76;48.42
62055;BME280;48653;51.742;-1.256;2023-04-20T01:46:02;101752.76;;;6.00;47.52
62055;BME280;48653;51.742;-1.256;2023-04-20T01:48:27;101748.50;;;5.89;48.07
62055;BME280;48653;51.742;-1.256;2023-04-20T01:50:53;101751.01;;;5.91;47.86
62055;BME280;48653;51.742;-1.256;2023-04-20T01:53:19;101752.62;;;5.84;48.62
62055;BME280;48653;51.742;-1.256;2023-04-20T01:55:44;101751.09;;;6.16;47.13
62055;BME280;48653;51.742;-1.256;2023-04-20T01:58:09;101750.54;;;5.53;48.29
62055;BME280;48653;51.742;-1.256;2023-04-20T02:00:34;101754.64;;;5.55;48.54
62055;BME280;48653;51.742;-1.256;2023-04-20T02:03:00;101750.08;;;5.53;49.10
62055;BME280;48653;51.742;-1.256;2023-04-20T02:05:25;101752.71;;;5.53;48.98
62055;BME280;48653;51.742;-1.256;2023-04-20T02:07:51;101752.47;;;5.20;50.14
62055;BME280;48653;51.742;-1.256;2023-04-20T02:10:17;101749.07;;;5.55;48.95
62055;BME280;48653;51.742;-1.256;2023-04-20T02:12:43;101750.30;;;5.76;49.33
62055;BME280;48653;51.742;-1.256;2023-04-20T02:15:09;101745.75;;;6.09;48.27
62055;BME280;48653;51.742;-1.256;2023-04-20T02:17:33;101743.09;;;5.55;48.37
62055;BME280;48653;51.742;-1.256;2023-04-20T02:19:59;101745.51;;;5.85;48.27
62055;BME280;48653;51.742;-1.256;2023-04-20T02:22:24;101744.90;;;5.87;48.89
62055;BME280;48653;51.742;-1.256;2023-04-20T02:24:49;101742.02;;;4.58;51.52
62055;BME280;48653;51.742;-1.256;2023-04-20T02:27:14;101743.83;;;5.08;50.51
62055;BME280;48653;51.742;-1.256;2023-04-20T02:29:40;101738.62;;;5.51;50.26
62055;BME280;48653;51.742;-1.256;2023-04-20T02:32:06;101735.59;;;5.84;50.22
62055;BME280;48653;51.742;-1.256;2023-04-20T02:34:31;101738.18;;;5.54;49.39
62055;BME280;48653;51.742;-1.256;2023-04-20T02:36:57;101739.21;;;6.29;48.05
62055;BME280;48653;51.742;-1.256;2023-04-20T02:39:22;101742.25;;;5.87;48.71
62055;BME280;48653;51.742;-1.256;2023-04-20T02:41:48;101740.24;;;5.83;48.33
62055;BME280;48653;51.742;-1.256;2023-04-20T02:44:14;101737.14;;;6.47;47.78
62055;BME280;48653;51.742;-1.256;2023-04-20T02:46:39;101736.11;;;6.22;48.54
62055;BME280;48653;51.742;-1.256;2023-04-20T02:49:05;101739.55;;;4.74;51.54
62055;BME280;48653;51.742;-1.256;2023-04-20T02:51:30;101734.11;;;5.75;48.96
62055;BME280;48653;51.742;-1.256;2023-04-20T02:53:55;101730.79;;;6.15;47.66
62055;BME280;48653;51.742;-1.256;2023-04-20T02:56:21;101733.97;;;5.81;48.38
62055;BME280;48653;51.742;-1.256;2023-04-20T02:58:47;101735.14;;;5.67;49.12
62055;BME280;48653;51.742;-1.256;2023-04-20T03:01:12;101726.87;;;5.57;49.18
62055;BME280;48653;51.742;-1.256;2023-04-20T03:03:37;101726.25;;;5.85;49.06
62055;BME280;48653;51.742;-1.256;2023-04-20T03:06:03;101724.96;;;5.27;50.68
62055;BME280;48653;51.742;-1.256;2023-04-20T03:08:28;101725.94;;;5.87;49.55
62055;BME280;48653;51.742;-1.256;2023-04-20T03:10:53;101725.56;;;6.02;49.16
62055;BME280;48653;51.742;-1.256;2023-04-20T03:13:19;101723.13;;;5.70;50.18
62055;BME280;48653;51.742;-1.256;2023-04-20T03:15:44;101724.53;;;6.14;49.12
62055;BME280;48653;51.742;-1.256;2023-04-20T03:18:10;101724.85;;;5.27;50.63
62055;BME280;48653;51.742;-1.256;2023-04-20T03:20:35;101728.24;;;5.93;49.41
62055;BME280;48653;51.742;-1.256;2023-04-20T03:23:01;101725.74;;;5.65;51.63
62055;BME280;48653;51.742;-1.256;2023-04-20T03:25:26;101729.26;;;5.64;50.03
62055;BME280;48653;51.742;-1.256;2023-04-20T03:27:51;101731.63;;;5.66;49.88
62055;BME280;48653;51.742;-1.256;2023-04-20T03:30:17;101733.86;;;5.39;50.67
62055;BME280;48653;51.742;-1.256;2023-04-20T03:32:42;101734.51;;;5.08;51.43
62055;BME280;48653;51.742;-1.256;2023-04-20T03:35:08;101728.44;;;5.51;51.20
62055;BME280;48653;51.742;-1.256;2023-04-20T03:37:35;101729.73;;;5.30;50.52
62055;BME280;48653;51.742;-1.256;2023-04-20T03:40:00;101736.34;;;5.62;50.10
62055;BME280;48653;51.742;-1.256;2023-04-20T03:42:25;101734.56;;;5.22;51.23
62055;BME280;48653;51.742;-1.256;2023-04-20T03:44:50;101741.25;;;4.37;54.44
62055;BME280;48653;51.742;-1.256;2023-04-20T03:47:16;101741.73;;;4.97;51.70
62055;BME280;48653;51.742;-1.256;2023-04-20T03:49:41;101743.51;;;4.87;52.45
62055;BME280;48653;51.742;-1.256;2023-04-20T03:52:07;101746.72;;;5.12;51.75
62055;BME280;48653;51.742;-1.256;2023-04-20T03:54:32;101746.01;;;5.26;51.31
62055;BME280;48653;51.742;-1.256;2023-04-20T03:56:58;101744.26;;;5.55;51.09
62055;BME280;48653;51.742;-1.256;2023-04-20T03:59:23;101742.42;;;5.29;51.23
62055;BME280;48653;51.742;-1.256;2023-04-20T04:01:49;101740.22;;;5.72;50.00
62055;BME280;48653;51.742;-1.256;2023-04-20T04:04:14;101740.01;;;5.29;50.89
62055;BME280;48653;51.742;-1.256;2023-04-20T04:06:39;101734.67;;;5.35;52.20
62055;BME280;48653;51.742;-1.256;2023-04-20T04:09:06;101736.63;;;5.25;52.16
62055;BME280;48653;51.742;-1.256;2023-04-20T04:11:31;101738.35;;;5.62;52.02
62055;BME280;48653;51.742;-1.256;2023-04-20T04:13:57;101740.06;;;5.27;51.61
62055;BME280;48653;51.742;-1.256;2023-04-20T04:16:21;101740.68;;;5.81;49.54
62055;BME280;48653;51.742;-1.256;2023-04-20T04:18:47;101740.25;;;5.83;49.92
62055;BME280;48653;51.742;-1.256;2023-04-20T04:21:12;101746.06;;;5.40;51.39
62055;BME280;48653;51.742;-1.256;2023-04-20T04:23:37;101743.84;;;5.48;51.19
62055;BME280;48653;51.742;-1.256;2023-04-20T04:26:03;101747.61;;;5.47;51.42
62055;BME280;48653;51.742;-1.256;2023-04-20T04:28:29;101748.35;;;5.58;50.39
62055;BME280;48653;51.742;-1.256;2023-04-20T04:30:54;101748.88;;;5.52;50.66
62055;BME280;48653;51.742;-1.256;2023-04-20T04:33:19;101751.51;;;4.94;50.99
62055;BME280;48653;51.742;-1.256;2023-04-20T04:35:44;101754.49;;;5.70;50.16
62055;BME280;48653;51.742;-1.256;2023-04-20T04:38:11;101753.38;;;5.46;50.38
62055;BME280;48653;51.742;-1.256;2023-04-20T04:40:35;101750.60;;;5.44;50.98
62055;BME280;48653;51.742;-1.256;2023-04-20T04:43:00;101748.57;;;5.57;50.47
62055;BME280;48653;51.742;-1.256;2023-04-20T04:45:25;101749.46;;;5.23;51.00
62055;BME280;48653;51.742;-1.256;2023-04-20T04:47:52;101751.80;;;5.12;51.43
62055;BME280;48653;51.742;-1.256;2023-04-20T04:50:16;101746.38;;;5.94;50.44
62055;BME280;48653;51.742;-1.256;2023-04-20T04:52:41;101752.75;;;5.08;51.80
62055;BME280;48653;51.742;-1.256;2023-04-20T04:55:07;101755.49;;;5.31;51.05
62055;BME280;48653;51.742;-1.256;2023-04-20T04:57:32;101752.98;;;5.39;50.15
62055;BME280;48653;51.742;-1.256;2023-04-20T04:59:58;101754.61;;;6.27;48.98
62055;BME280;48653;51.742;-1.256;2023-04-20T05:02:24;101753.39;;;5.56;50.47
62055;BME280;48653;51.742;-1.256;2023-04-20T05:04:49;101757.05;;;6.01;48.95
62055;BME280;48653;51.742;-1.256;2023-04-20T05:07:14;101757.08;;;6.04;48.39
62055;BME280;48653;51.742;-1.256;2023-04-20T05:09:40;101758.88;;;5.90;49.09
62055;BME280;48653;51.742;-1.256;2023-04-20T05:12:06;101759.65;;;5.73;49.89
62055;BME280;48653;51.742;-1.256;2023-04-20T05:14:31;101760.62;;;5.83;50.06
62055;BME280;48653;51.742;-1.256;2023-04-20T05:16:57;101762.82;;;5.99;50.26
62055;BME280;48653;51.742;-1.256;2023-04-20T05:19:22;101765.97;;;5.23;51.30
62055;BME280;48653;51.742;-1.256;2023-04-20T05:21:47;101765.36;;;5.39;50.64
62055;BME280;48653;51.742;-1.256;2023-04-20T05:24:13;101762.25;;;5.23;50.33
62055;BME280;48653;51.742;-1.256;2023-04-20T05:26:38;101764.58;;;6.08;49.92
62055;BME280;48653;51.742;-1.256;2023-04-20T05:29:04;101765.03;;;5.82;49.85
62055;BME280;48653;51.742;-1.256;2023-04-20T05:31:29;101767.93;;;5.78;49.78
62055;BME280;48653;51.742;-1.256;2023-04-20T05:33:55;101770.98;;;5.70;49.93
62055;BME280;48653;51.742;-1.256;2023-04-20T05:36:20;101773.01;;;5.35;51.11
62055;BME280;48653;51.742;-1.256;2023-04-20T05:38:46;101777.96;;;5.48;51.16
62055;BME280;48653;51.742;-1.256;2023-04-20T05:41:12;101778.08;;;5.83;50.47
62055;BME280;48653;51.742;-1.256;2023-04-20T05:43:37;101779.64;;;5.70;50.59
62055;BME280;48653;51.742;-1.256;2023-04-20T05:46:04;101780.67;;;6.17;49.18
62055;BME280;48653;51.742;-1.256;2023-04-20T05:48:29;101777.81;;;5.54;50.98
62055;BME280;48653;51.742;-1.256;2023-04-20T05:50:54;101777.94;;;5.23;51.68
62055;BME280;48653;51.742;-1.256;2023-04-20T05:53:19;101777.86;;;5.77;50.93
62055;BME280;48653;51.742;-1.256;2023-04-20T05:55:45;101779.63;;;5.72;50.38
62055;BME280;48653;51.742;-1.256;2023-04-20T05:58:10;101777.25;;;5.80;50.55
62055;BME280;48653;51.742;-1.256;2023-04-20T06:00:35;101775.28;;;5.79;50.69
62055;BME280;48653;51.742;-1.256;2023-04-20T06:03:02;101775.45;;;5.92;50.26
62055;BME280;48653;51.742;-1.256;2023-04-20T06:05:26;101773.31;;;5.32;53.14
62055;BME280;48653;51.742;-1.256;2023-04-20T06:07:51;101774.49;;;5.43;51.92
62055;BME280;48653;51.742;-1.256;2023-04-20T06:10:17;101770.64;;;5.84;51.08
62055;BME280;48653;51.742;-1.256;2023-04-20T06:12:42;101771.48;;;5.60;52.01
62055;BME280;48653;51.742;-1.256;2023-04-20T06:15:08;101771.27;;;5.41;52.42
62055;BME280;48653;51.742;-1.256;2023-04-20T06:17:36;101771.45;;;5.20;53.08
62055;BME280;48653;51.742;-1.256;2023-04-20T06:19:58;101766.31;;;5.85;52.19
62055;BME280;48653;51.742;-1.256;2023-04-20T06:22:24;101767.29;;;5.80;52.17
62055;BME280;48653;51.742;-1.256;2023-04-20T06:24:50;101771.34;;;5.26;53.45
62055;BME280;48653;51.742;-1.256;2023-04-20T06:27:15;101771.23;;;5.45;53.44
62055;BME280;48653;51.742;-1.256;2023-04-20T06:29:40;101766.30;;;5.47;53.38
62055;BME280;48653;51.742;-1.256;2023-04-20T06:32:06;101765.78;;;5.61;53.02
62055;BME280;48653;51.742;-1.256;2023-04-20T06:34:32;101769.13;;;4.99;55.05
62055;BME280;48653;51.742;-1.256;2023-04-20T06:36:57;101769.33;;;5.45;54.09
62055;BME280;48653;51.742;-1.256;2023-04-20T06:39:23;101770.02;;;5.61;53.71
62055;BME280;48653;51.742;-1.256;2023-04-20T06:41:49;101767.95;;;5.85;53.30
62055;BME280;48653;51.742;-1.256;2023-04-20T06:44:14;101766.38;;;6.13;52.70
62055;BME280;48653;51.742;-1.256;2023-04-20T06:46:40;101762.57;;;5.93;53.36
62055;BME280;48653;51.742;-1.256;2023-04-20T06:49:05;101767.80;;;5.99;53.18
62055;BME280;48653;51.742;-1.256;2023-04-20T06:51:31;101766.35;;;6.37;53.07
62055;BME280;48653;51.742;-1.256;2023-04-20T06:53:56;101764.25;;;5.78;53.72
62055;BME280;48653;51.742;-1.256;2023-04-20T06:56:22;101766.55;;;6.36;53.42
62055;BME280;48653;51.742;-1.256;2023-04-20T06:58:47;101764.98;;;6.53;53.49
62055;BME280;48653;51.742;-1.256;2023-04-20T07:01:13;101768.12;;;6.15;53.21
62055;BME280;48653;51.742;-1.256;2023-04-20T07:03:38;101767.69;;;7.00;51.41
62055;BME280;48653;51.742;-1.256;2023-04-20T07:06:04;101770.64;;;6.87;51.66
62055;BME280;48653;51.742;-1.256;2023-04-20T07:08:29;101775.50;;;6.96;51.88
62055;BME280;48653;51.742;-1.256;2023-04-20T07:10:55;101779.19;;;6.71;52.34
62055;BME280;48653;51.742;-1.256;2023-04-20T07:13:20;101779.47;;;6.79;52.22
62055;BME280;48653;51.742;-1.256;2023-04-20T07:15:45;101779.75;;;7.30;51.67
62055;BME280;48653;51.742;-1.256;2023-04-20T07:18:10;101775.72;;;8.21;50.23
62055;BME280;48653;51.742;-1.256;2023-04-20T07:20:35;101773.30;;;7.93;50.13
62055;BME280;48653;51.742;-1.256;2023-04-20T07:23:01;101772.62;;;8.28;49.88
62055;BME280;48653;51.742;-1.256;2023-04-20T07:25:27;101768.71;;;8.48;48.74
62055;BME280;48653;51.742;-1.256;2023-04-20T07:27:52;101763.77;;;9.17;48.07
62055;BME280;48653;51.742;-1.256;2023-04-20T07:30:17;101762.24;;;8.82;48.29
62055;BME280;48653;51.742;-1.256;2023-04-20T07:32:43;101756.77;;;8.89;47.93
62055;BME280;48653;51.742;-1.256;2023-04-20T07:35:09;101757.05;;;9.21;47.35
62055;BME280;48653;51.742;-1.256;2023-04-20T07:37:33;101756.89;;;9.52;46.75
62055;BME280;48653;51.742;-1.256;2023-04-20T07:39:59;101754.85;;;9.88;45.65
62055;BME280;48653;51.742;-1.256;2023-04-20T07:42:24;101755.37;;;10.04;45.59
62055;BME280;48653;51.742;-1.256;2023-04-20T07:44:49;101756.14;;;10.58;44.55
62055;BME280;48653;51.742;-1.256;2023-04-20T07:47:14;101755.71;;;10.17;44.98
62055;BME280;48653;51.742;-1.256;2023-04-20T07:49:40;101756.13;;;10.64;45.27
62055;BME280;48653;51.742;-1.256;2023-04-20T07:52:05;101750.35;;;10.73;44.55
62055;BME280;48653;51.742;-1.256;2023-04-20T07:54:30;101755.73;;;10.19;44.25
62055;BME280;48653;51.742;-1.256;2023-04-20T07:56:55;101749.06;;;11.11;43.95
62055;BME280;48653;51.742;-1.256;2023-04-20T07:59:21;101743.72;;;10.97;44.04
62055;BME280;48653;51.742;-1.256;2023-04-20T08:01:47;101747.16;;;11.13;43.81
62055;BME280;48653;51.742;-1.256;2023-04-20T08:04:12;101743.39;;;11.30;42.40
62055;BME280;48653;51.742;-1.256;2023-04-20T08:06:37;101741.22;;;11.73;42.30
62055;BME280;48653;51.742;-1.256;2023-04-20T08:09:03;101742.23;;;10.61;43.09
62055;BME280;48653;51.742;-1.256;2023-04-20T08:11:28;101738.30;;;10.39;42.70
62055;BME280;48653;51.742;-1.256;2023-04-20T08:13:53;101741.94;;;10.98;42.63
62055;BME280;48653;51.742;-1.256;2023-04-20T08:16:18;101735.79;;;11.12;40.94
62055;BME280;48653;51.742;-1.256;2023-04-20T08:18:44;101734.95;;;11.49;41.12
62055;BME280;48653;51.742;-1.256;2023-04-20T08:21:09;101735.49;;;11.16;40.89
62055;BME280;48653;51.742;-1.256;2023-04-20T08:23:34;101738.56;;;10.82;41.41
62055;BME280;48653;51.742;-1.256;2023-04-20T08:25:59;101739.10;;;10.50;41.92
62055;BME280;48653;51.742;-1.256;2023-04-20T08:28:25;101742.62;;;11.11;40.92
62055;BME280;48653;51.742;-1.256;2023-04-20T08:30:52;101737.73;;;10.75;40.81
62055;BME280;48653;51.742;-1.256;2023-04-20T08:33:15;101736.14;;;10.87;40.42
62055;BME280;48653;51.742;-1.256;2023-04-20T08:35:41;101736.92;;;11.10;40.43
62055;BME280;48653;51.742;-1.256;2023-04-20T08:38:06;101733.58;;;11.49;40.28
62055;BME280;48653;51.742;-1.256;2023-04-20T08:40:32;101729.28;;;11.86;39.85
62055;BME280;48653;51.742;-1.256;2023-04-20T08:42:57;101723.39;;;11.94;40.42
62055;BME280;48653;51.742;-1.256;2023-04-20T08:45:22;101723.57;;;12.10;39.53
62055;BME280;48653;51.742;-1.256;2023-04-20T08:47:48;101712.98;;;11.65;38.64
62055;BME280;48653;51.742;-1.256;2023-04-20T08:50:14;101712.00;;;11.06;38.28
62055;BME280;48653;51.742;-1.256;2023-04-20T08:52:39;101712.36;;;11.52;38.58
62055;BME280;48653;51.742;-1.256;2023-04-20T08:55:06;101715.21;;;11.89;36.53
62055;BME280;48653;51.742;-1.256;2023-04-20T08:57:29;101709.50;;;12.41;37.38
62055;BME280;48653;51.742;-1.256;2023-04-20T08:59:55;101710.42;;;13.04;36.52
62055;BME280;48653;51.742;-1.256;2023-04-20T09:02:20;101711.84;;;12.17;36.24
62055;BME280;48653;51.742;-1.256;2023-04-20T09:04:45;101711.15;;;13.04;34.92
62055;BME280;48653;51.742;-1.256;2023-04-20T09:07:16;101703.35;;;13.11;34.28
62055;BME280;48653;51.742;-1.256;2023-04-20T09:09:36;101705.79;;;13.69;33.71
62055;BME280;48653;51.742;-1.256;2023-04-20T09:12:01;101695.42;;;13.99;33.93
62055;BME280;48653;51.742;-1.256;2023-04-20T09:14:25;101696.75;;;13.52;33.03
62055;BME280;48653;51.742;-1.256;2023-04-20T09:16:53;101697.58;;;13.63;33.02
62055;BME280;48653;51.742;-1.256;2023-04-20T09:19:21;101690.06;;;14.08;33.27
62055;BME280;48653;51.742;-1.256;2023-04-20T09:21:47;101691.66;;;14.72;31.00
62055;BME280;48653;51.742;-1.256;2023-04-20T09:24:07;101681.04;;;14.85;31.67
62055;BME280;48653;51.742;-1.256;2023-04-20T09:26:33;101683.08;;;15.09;31.42
62055;BME280;48653;51.742;-1.256;2023-04-20T09:28:57;101682.61;;;15.78;30.22
62055;BME280;48653;51.742;-1.256;2023-04-20T09:31:23;101683.04;;;16.19;30.02
62055;BME280;48653;51.742;-1.256;2023-04-20T09:33:56;101682.75;;;15.91;29.19
62055;BME280;48653;51.742;-1.256;2023-04-20T09:36:14;101672.70;;;15.95;29.56
62055;BME280;48653;51.742;-1.256;2023-04-20T09:38:39;101678.72;;;15.98;29.56
62055;BME280;48653;51.742;-1.256;2023-04-20T09:41:05;101669.12;;;16.32;29.54
62055;BME280;48653;51.742;-1.256;2023-04-20T09:43:29;101665.77;;;16.33;28.10
62055;BME280;48653;51.742;-1.256;2023-04-20T09:45:54;101663.00;;;16.07;28.02
62055;BME280;48653;51.742;-1.256;2023-04-20T09:48:20;101656.93;;;16.85;27.75
62055;BME280;48653;51.742;-1.256;2023-04-20T09:50:46;101665.60;;;15.84;27.52
62055;BME280;48653;51.742;-1.256;2023-04-20T09:53:10;101660.15;;;15.86;28.12
62055;BME280;48653;51.742;-1.256;2023-04-20T09:55:36;101652.69;;;16.23;27.57
62055;BME280;48653;51.742;-1.256;2023-04-20T09:58:02;101650.17;;;16.36;26.88
62055;BME280;48653;51.742;-1.256;2023-04-20T10:00:25;101636.38;;;17.55;27.18
62055;BME280;48653;51.742;-1.256;2023-04-20T10:02:50;101637.93;;;17.20;27.35
62055;BME280;48653;51.742;-1.256;2023-04-20T10:05:15;101637.87;;;16.68;25.18
62055;BME280;48653;51.742;-1.256;2023-04-20T10:07:40;101638.58;;;16.62;26.19
62055;BME280;48653;51.742;-1.256;2023-04-20T10:10:07;101638.44;;;16.91;25.26
62055;BME280;48653;51.742;-1.256;2023-04-20T10:12:31;101626.77;;;17.43;24.49
62055;BME280;48653;51.742;-1.256;2023-04-20T10:14:56;101626.17;;;17.86;25.38
62055;BME280;48653;51.742;-1.256;2023-04-20T10:17:29;101618.63;;;17.16;24.79
62055;BME280;48653;51.742;-1.256;2023-04-20T10:19:46;101616.60;;;18.52;24.59
62055;BME280;48653;51.742;-1.256;2023-04-20T10:22:23;101618.87;;;17.48;26.07
62055;BME280;48653;51.742;-1.256;2023-04-20T10:24:37;101611.83;;;17.12;25.21
62055;BME280;48653;51.742;-1.256;2023-04-20T10:27:02;101609.59;;;18.07;24.49
62055;BME280;48653;51.742;-1.256;2023-04-20T10:29:27;101604.75;;;17.74;24.85
62055;BME280;48653;51.742;-1.256;2023-04-20T10:31:52;101596.71;;;17.67;24.25
62055;BME280;48653;51.742;-1.256;2023-04-20T10:34:17;101593.18;;;17.12;26.15
62055;BME280;48653;51.742;-1.256;2023-04-20T10:36:42;101586.11;;;17.11;26.68
62055;BME280;48653;51.742;-1.256;2023-04-20T10:39:13;101587.60;;;17.43;26.13
62055;BME280;48653;51.742;-1.256;2023-04-20T10:41:32;101585.49;;;16.54;27.01
62055;BME280;48653;51.742;-1.256;2023-04-20T10:44:07;101579.14;;;16.94;26.73
62055;BME280;48653;51.742;-1.256;2023-04-20T10:46:23;101582.39;;;17.45;26.65
62055;BME280;48653;51.742;-1.256;2023-04-20T10:48:50;101576.57;;;17.65;26.58
62055;BME280;48653;51.742;-1.256;2023-04-20T10:51:12;101569.53;;;16.93;26.00
62055;BME280;48653;51.742;-1.256;2023-04-20T10:53:37;101568.57;;;16.79;25.57
62055;BME280;48653;51.742;-1.256;2023-04-20T10:56:02;101565.70;;;18.04;25.54
62055;BME280;48653;51.742;-1.256;2023-04-20T10:58:27;101559.42;;;17.85;24.44
62055;BME280;48653;51.742;-1.256;2023-04-20T11:00:57;101566.09;;;18.46;25.38
62055;BME280;48653;51.742;-1.256;2023-04-20T11:03:18;101560.29;;;18.43;24.53
62055;BME280;48653;51.742;-1.256;2023-04-20T11:05:43;101550.94;;;18.74;24.07
62055;BME280;48653;51.742;-1.256;2023-04-20T11:08:08;101551.93;;;19.17;24.94
62055;BME280;48653;51.742;-1.256;2023-04-20T11:10:37;101544.75;;;18.70;24.37
62055;BME280;48653;51.742;-1.256;2023-04-20T11:12:58;101546.01;;;18.77;23.63
62055;BME280;48653;51.742;-1.256;2023-04-20T11:15:30;101539.30;;;18.26;24.55
62055;BME280;48653;51.742;-1.256;2023-04-20T11:17:49;101534.51;;;18.56;23.20
62055;BME280;48653;51.742;-1.256;2023-04-20T11:20:14;101533.44;;;18.81;22.80
62055;BME280;48653;51.742;-1.256;2023-04-20T11:22:41;101523.31;;;18.29;23.66
62055;BME280;48653;51.742;-1.256;2023-04-20T11:25:05;101514.14;;;17.74;23.64
62055;BME280;48653;51.742;-1.256;2023-04-20T11:27:29;101510.47;;;18.44;24.91
62055;BME280;48653;51.742;-1.256;2023-04-20T11:29:56;101514.93;;;17.77;24.99
62055;BME280;48653;51.742;-1.256;2023-04-20T11:32:20;101511.89;;;18.07;23.25
62055;BME280;48653;51.742;-1.256;2023-04-20T11:34:45;101512.32;;;18.28;25.06
62055;BME280;48653;51.742;-1.256;2023-04-20T11:37:10;101506.86;;;17.98;23.69
62055;BME280;48653;51.742;-1.256;2023-04-20T11:39:35;101507.92;;;18.93;23.22
62055;BME280;48653;51.742;-1.256;2023-04-20T11:42:00;101507.53;;;18.40;25.04
62055;BME280;48653;51.742;-1.256;2023-04-20T11:44:25;101503.79;;;17.63;24.03
62055;BME280;48653;51.742;-1.256;2023-04-20T11:46:51;101502.39;;;18.66;24.01
62055;BME280;48653;51.742;-1.256;2023-04-20T11:49:16;101502.43;;;18.38;24.65
62055;BME280;48653;51.742;-1.256;2023-04-20T11:51:41;101502.14;;;18.25;23.32
62055;BME280;48653;51.742;-1.256;2023-04-20T11:54:06;101492.89;;;18.53;24.85
62055;BME280;48653;51.742;-1.256;2023-04-20T11:56:31;101502.70;;;17.82;24.57
62055;BME280;48653;51.742;-1.256;2023-04-20T11:58:56;101501.81;;;17.92;25.00
62055;BME280;48653;51.742;-1.256;2023-04-20T12:01:21;101500.73;;;18.51;24.19
62055;BME280;48653;51.742;-1.256;2023-04-20T12:03:47;101501.04;;;18.44;23.06
62055;BME280;48653;51.742;-1.256;2023-04-20T12:06:12;101496.56;;;17.67;23.60
62055;BME280;48653;51.742;-1.256;2023-04-20T12:08:37;101492.35;;;17.88;24.04
62055;BME280;48653;51.742;-1.256;2023-04-20T12:11:02;101484.00;;;17.64;24.41
62055;BME280;48653;51.742;-1.256;2023-04-20T12:13:27;101478.09;;;18.16;23.23
62055;BME280;48653;51.742;-1.256;2023-04-20T12:15:52;101481.33;;;18.65;23.06
62055;BME280;48653;51.742;-1.256;2023-04-20T12:18:17;101480.16;;;18.40;23.45
62055;BME280;48653;51.742;-1.256;2023-04-20T12:20:42;101476.17;;;18.23;22.46
62055;BME280;48653;51.742;-1.256;2023-04-20T12:23:07;101487.68;;;17.75;24.84
62055;BME280;48653;51.742;-1.256;2023-04-20T12:25:32;101476.99;;;17.96;22.88
62055;BME280;48653;51.742;-1.256;2023-04-20T12:27:57;101476.17;;;17.30;21.75
62055;BME280;48653;51.742;-1.256;2023-04-20T12:30:23;101473.58;;;17.30;22.30
62055;BME280;48653;51.742;-1.256;2023-04-20T12:32:47;101475.38;;;17.45;23.76
62055;BME280;48653;51.742;-1.256;2023-04-20T12:35:13;101465.80;;;16.82;24.01